Terminal Aerodrome Forecast
Issued by NWS

Home | Current Version | Previous Version | Text Only | Print | Product List | Glossary On
Versions: 1 2 3 4 5 6 7 8 9 10 11 12 13 14 15 16 17
000
FTUS46 KEKA 271739
TAFCEC
TAF
KCEC 271739Z 2718/2818 08005KT P6SM FEW200
     FM272000 17008KT P6SM FEW050 OVC200
     FM280300 15003KT P6SM FEW030 BKN050 OVC100
     FM280900 05003KT P6SM -RA FEW025 OVC040=

USA.gov is the U.S. government's official web portal to all federal, state and local government web resources and services.